sensor_id;sensor_type;location;lat;lon;timestamp;pressure;altitude;pressure_sealevel;temperature;humidity
66703;BME280;60933;46.398;-63.798;2023-05-09T00:00:22;100476.63;;;2.64;80.21
66703;BME280;60933;46.398;-63.798;2023-05-09T00:02:48;100482.56;;;2.63;80.10
66703;BME280;60933;46.398;-63.798;2023-05-09T00:05:14;100478.34;;;2.59;80.22
66703;BME280;60933;46.398;-63.798;2023-05-09T00:07:40;100486.81;;;2.58;80.00
66703;BME280;60933;46.398;-63.798;2023-05-09T00:10:07;100491.88;;;2.55;80.02
66703;BME280;60933;46.398;-63.798;2023-05-09T00:12:33;100493.56;;;2.53;80.16
66703;BME280;60933;46.398;-63.798;2023-05-09T00:14:59;100495.28;;;2.51;80.23
66703;BME280;60933;46.398;-63.798;2023-05-09T00:17:25;100494.41;;;2.47;80.00
66703;BME280;60933;46.398;-63.798;2023-05-09T00:19:53;100506.28;;;2.45;80.09
66703;BME280;60933;46.398;-63.798;2023-05-09T00:22:20;100512.22;;;2.43;79.99
66703;BME280;60933;46.398;-63.798;2023-05-09T00:24:49;100513.91;;;2.41;80.29
66703;BME280;60933;46.398;-63.798;2023-05-09T00:27:16;100506.25;;;2.39;80.48
66703;BME280;60933;46.398;-63.798;2023-05-09T00:29:42;100510.50;;;2.38;80.25
66703;BME280;60933;46.398;-63.798;2023-05-09T00:32:08;100504.53;;;2.35;80.21
66703;BME280;60933;46.398;-63.798;2023-05-09T00:34:35;100513.00;;;2.31;80.27
66703;BME280;60933;46.398;-63.798;2023-05-09T00:37:01;100520.69;;;2.35;80.33
66703;BME280;60933;46.398;-63.798;2023-05-09T00:39:27;100518.97;;;2.34;80.54
66703;BME280;60933;46.398;-63.798;2023-05-09T00:41:55;100515.56;;;2.34;80.64
66703;BME280;60933;46.398;-63.798;2023-05-09T00:44:21;100523.19;;;2.31;80.53
66703;BME280;60933;46.398;-63.798;2023-05-09T00:46:48;100533.38;;;2.34;80.57
66703;BME280;60933;46.398;-63.798;2023-05-09T00:49:14;100531.72;;;2.33;80.88
66703;BME280;60933;46.398;-63.798;2023-05-09T00:51:40;100550.38;;;2.33;80.96
66703;BME280;60933;46.398;-63.798;2023-05-09T00:54:08;100548.66;;;2.34;80.82
66703;BME280;60933;46.398;-63.798;2023-05-09T00:56:34;100549.50;;;2.30;80.83
66703;BME280;60933;46.398;-63.798;2023-05-09T00:59:00;100545.25;;;2.30;81.19
66703;BME280;60933;46.398;-63.798;2023-05-09T01:01:26;100551.22;;;2.32;80.89
66703;BME280;60933;46.398;-63.798;2023-05-09T01:03:53;100550.38;;;2.32;81.33
66703;BME280;60933;46.398;-63.798;2023-05-09T01:06:50;100548.69;;;2.35;81.30
66703;BME280;60933;46.398;-63.798;2023-05-09T01:15:07;100535.97;;;2.38;81.09
66703;BME280;60933;46.398;-63.798;2023-05-09T01:17:56;100539.38;;;2.37;81.27
66703;BME280;60933;46.398;-63.798;2023-05-09T01:25:52;100530.00;;;2.35;80.84
66703;BME280;60933;46.398;-63.798;2023-05-09T01:28:51;100531.72;;;2.36;81.43
66703;BME280;60933;46.398;-63.798;2023-05-09T01:31:21;100529.16;;;2.34;80.80
66703;BME280;60933;46.398;-63.798;2023-05-09T01:33:55;100530.00;;;2.35;80.14
66703;BME280;60933;46.398;-63.798;2023-05-09T01:36:22;100521.53;;;2.36;80.15
66703;BME280;60933;46.398;-63.798;2023-05-09T01:38:54;100516.44;;;2.33;80.01
66703;BME280;60933;46.398;-63.798;2023-05-09T01:41:23;100521.56;;;2.37;79.75
66703;BME280;60933;46.398;-63.798;2023-05-09T01:43:52;100525.78;;;2.38;79.55
66703;BME280;60933;46.398;-63.798;2023-05-09T01:46:21;100520.69;;;2.38;79.66
66703;BME280;60933;46.398;-63.798;2023-05-09T01:48:48;100514.75;;;2.36;79.60
66703;BME280;60933;46.398;-63.798;2023-05-09T01:51:15;100511.34;;;2.39;79.48
66703;BME280;60933;46.398;-63.798;2023-05-09T01:53:42;100516.47;;;2.39;79.08
66703;BME280;60933;46.398;-63.798;2023-05-09T01:56:10;100508.81;;;2.37;79.31
66703;BME280;60933;46.398;-63.798;2023-05-09T01:58:38;100503.69;;;2.36;79.25
66703;BME280;60933;46.398;-63.798;2023-05-09T02:01:06;100501.97;;;2.35;79.04
66703;BME280;60933;46.398;-63.798;2023-05-09T02:03:33;100507.94;;;2.35;79.01
66703;BME280;60933;46.398;-63.798;2023-05-09T02:06:03;100500.28;;;2.32;79.02
66703;BME280;60933;46.398;-63.798;2023-05-09T02:08:30;100503.66;;;2.30;79.49
66703;BME280;60933;46.398;-63.798;2023-05-09T02:10:57;100494.31;;;2.27;79.75
66703;BME280;60933;46.398;-63.798;2023-05-09T02:13:23;100490.06;;;2.25;80.13
66703;BME280;60933;46.398;-63.798;2023-05-09T02:15:50;100494.28;;;2.21;79.84
66703;BME280;60933;46.398;-63.798;2023-05-09T02:18:16;100495.13;;;2.21;79.80
66703;BME280;60933;46.398;-63.798;2023-05-09T02:20:43;100493.41;;;2.19;79.75
66703;BME280;60933;46.398;-63.798;2023-05-09T02:23:09;100495.97;;;2.20;80.31
66703;BME280;60933;46.398;-63.798;2023-05-09T02:25:37;100496.81;;;2.19;80.01
66703;BME280;60933;46.398;-63.798;2023-05-09T02:28:04;100490.00;;;2.18;80.52
66703;BME280;60933;46.398;-63.798;2023-05-09T02:30:35;100491.72;;;2.18;80.68
66703;BME280;60933;46.398;-63.798;2023-05-09T02:33:05;100481.50;;;2.15;80.36
66703;BME280;60933;46.398;-63.798;2023-05-09T02:35:33;100481.50;;;2.13;80.93
66703;BME280;60933;46.398;-63.798;2023-05-09T02:38:01;100478.09;;;2.11;80.87
66703;BME280;60933;46.398;-63.798;2023-05-09T02:40:28;100469.56;;;2.08;80.98
66703;BME280;60933;46.398;-63.798;2023-05-09T02:42:55;100471.28;;;2.05;81.01
66703;BME280;60933;46.398;-63.798;2023-05-09T02:45:22;100472.13;;;2.04;81.17
66703;BME280;60933;46.398;-63.798;2023-05-09T02:47:48;100474.63;;;2.01;81.30
66703;BME280;60933;46.398;-63.798;2023-05-09T02:50:14;100455.91;;;1.90;81.19
66703;BME280;60933;46.398;-63.798;2023-05-09T02:52:40;100472.91;;;1.94;81.01
66703;BME280;60933;46.398;-63.798;2023-05-09T02:55:07;100474.56;;;1.92;81.08
66703;BME280;60933;46.398;-63.798;2023-05-09T02:57:34;100465.22;;;1.86;81.95
66703;BME280;60933;46.398;-63.798;2023-05-09T03:00:01;100466.91;;;1.83;81.70
66703;BME280;60933;46.398;-63.798;2023-05-09T03:02:27;100464.34;;;1.83;82.10
66703;BME280;60933;46.398;-63.798;2023-05-09T03:04:53;100468.56;;;1.81;82.58
66703;BME280;60933;46.398;-63.798;2023-05-09T03:07:19;100463.47;;;1.79;82.68
66703;BME280;60933;46.398;-63.798;2023-05-09T03:09:45;100466.03;;;1.79;82.89
66703;BME280;60933;46.398;-63.798;2023-05-09T03:12:11;100462.59;;;1.77;82.90
66703;BME280;60933;46.398;-63.798;2023-05-09T03:14:39;100458.34;;;1.76;83.21
66703;BME280;60933;46.398;-63.798;2023-05-09T03:17:06;100450.72;;;1.76;83.43
66703;BME280;60933;46.398;-63.798;2023-05-09T03:19:32;100455.81;;;1.74;83.69
66703;BME280;60933;46.398;-63.798;2023-05-09T03:21:58;100453.25;;;1.74;83.94
66703;BME280;60933;46.398;-63.798;2023-05-09T03:24:25;100451.56;;;1.73;84.30
66703;BME280;60933;46.398;-63.798;2023-05-09T03:26:54;100466.84;;;1.75;84.48
66703;BME280;60933;46.398;-63.798;2023-05-09T03:29:20;100457.50;;;1.72;84.55
66703;BME280;60933;46.398;-63.798;2023-05-09T03:31:47;100454.09;;;1.73;84.96
66703;BME280;60933;46.398;-63.798;2023-05-09T03:34:13;100451.53;;;1.70;85.16
66703;BME280;60933;46.398;-63.798;2023-05-09T03:36:43;100460.91;;;1.74;85.21
66703;BME280;60933;46.398;-63.798;2023-05-09T03:39:09;100459.19;;;1.77;85.16
66703;BME280;60933;46.398;-63.798;2023-05-09T03:41:36;100458.34;;;1.78;85.14
66703;BME280;60933;46.398;-63.798;2023-05-09T03:44:03;100461.78;;;1.78;85.62
66703;BME280;60933;46.398;-63.798;2023-05-09T03:46:29;100458.34;;;1.78;85.43
66703;BME280;60933;46.398;-63.798;2023-05-09T03:48:55;100455.81;;;1.78;85.58
66703;BME280;60933;46.398;-63.798;2023-05-09T03:51:22;100458.34;;;1.78;85.80
66703;BME280;60933;46.398;-63.798;2023-05-09T03:53:50;100455.81;;;1.78;85.68
66703;BME280;60933;46.398;-63.798;2023-05-09T03:56:17;100450.72;;;1.76;85.63
66703;BME280;60933;46.398;-63.798;2023-05-09T03:58:43;100456.66;;;1.77;85.80
66703;BME280;60933;46.398;-63.798;2023-05-09T04:01:09;100453.25;;;1.74;85.43
66703;BME280;60933;46.398;-63.798;2023-05-09T04:03:35;100454.09;;;1.73;85.61
66703;BME280;60933;46.398;-63.798;2023-05-09T04:06:03;100419.19;;;1.54;85.69
66703;BME280;60933;46.398;-63.798;2023-05-09T04:08:30;100445.59;;;1.70;85.77
66703;BME280;60933;46.398;-63.798;2023-05-09T04:10:56;100451.56;;;1.72;86.11
66703;BME280;60933;46.398;-63.798;2023-05-09T04:13:22;100450.69;;;1.70;86.12
66703;BME280;60933;46.398;-63.798;2023-05-09T04:15:48;100455.78;;;1.71;86.04
66703;BME280;60933;46.398;-63.798;2023-05-09T04:18:15;100462.56;;;1.72;85.83
66703;BME280;60933;46.398;-63.798;2023-05-09T04:20:41;100453.22;;;1.71;85.84
66703;BME280;60933;46.398;-63.798;2023-05-09T04:23:07;100449.00;;;1.72;85.60
66703;BME280;60933;46.398;-63.798;2023-05-09T04:25:33;100449.84;;;1.74;85.96
66703;BME280;60933;46.398;-63.798;2023-05-09T04:28:00;100443.94;;;1.73;85.96
66703;BME280;60933;46.398;-63.798;2023-05-09T04:30:26;100454.09;;;1.75;85.56
66703;BME280;60933;46.398;-63.798;2023-05-09T04:32:52;100446.47;;;1.73;85.02
66703;BME280;60933;46.398;-63.798;2023-05-09T04:35:20;100453.25;;;1.74;84.98
66703;BME280;60933;46.398;-63.798;2023-05-09T04:37:47;100450.69;;;1.71;84.79
66703;BME280;60933;46.398;-63.798;2023-05-09T04:40:13;100447.28;;;1.69;85.09
66703;BME280;60933;46.398;-63.798;2023-05-09T04:42:39;100438.81;;;1.70;84.83
66703;BME280;60933;46.398;-63.798;2023-05-09T04:45:07;100452.38;;;1.69;85.08
66703;BME280;60933;46.398;-63.798;2023-05-09T04:47:33;100443.06;;;1.70;84.67
66703;BME280;60933;46.398;-63.798;2023-05-09T04:49:59;100447.28;;;1.69;84.69
66703;BME280;60933;46.398;-63.798;2023-05-09T04:52:26;100441.34;;;1.69;84.35
66703;BME280;60933;46.398;-63.798;2023-05-09T04:54:52;100443.06;;;1.70;84.28
66703;BME280;60933;46.398;-63.798;2023-05-09T04:57:18;100437.94;;;1.67;83.90
66703;BME280;60933;46.398;-63.798;2023-05-09T04:59:44;100443.88;;;1.67;83.80
66703;BME280;60933;46.398;-63.798;2023-05-09T05:02:10;100448.97;;;1.67;84.16
66703;BME280;60933;46.398;-63.798;2023-05-09T05:04:37;100442.19;;;1.66;83.67
66703;BME280;60933;46.398;-63.798;2023-05-09T05:07:03;100443.03;;;1.65;83.64
66703;BME280;60933;46.398;-63.798;2023-05-09T05:09:29;100449.81;;;1.66;83.86
66703;BME280;60933;46.398;-63.798;2023-05-09T05:11:56;100455.75;;;1.65;83.84
66703;BME280;60933;46.398;-63.798;2023-05-09T05:14:22;100448.09;;;1.65;83.63
66703;BME280;60933;46.398;-63.798;2023-05-09T05:16:48;100446.41;;;1.64;83.66
66703;BME280;60933;46.398;-63.798;2023-05-09T05:19:14;100444.69;;;1.62;84.04
66703;BME280;60933;46.398;-63.798;2023-05-09T05:21:40;100444.69;;;1.62;83.80
66703;BME280;60933;46.398;-63.798;2023-05-09T05:24:06;100446.38;;;1.61;84.10
66703;BME280;60933;46.398;-63.798;2023-05-09T05:26:32;100446.38;;;1.61;84.36
66703;BME280;60933;46.398;-63.798;2023-05-09T05:28:58;100442.97;;;1.62;84.28
66703;BME280;60933;46.398;-63.798;2023-05-09T05:31:25;100445.53;;;1.62;84.12
66703;BME280;60933;46.398;-63.798;2023-05-09T05:33:51;100454.00;;;1.61;84.13
66703;BME280;60933;46.398;-63.798;2023-05-09T05:36:17;100448.91;;;1.61;84.35
66703;BME280;60933;46.398;-63.798;2023-05-09T05:38:43;100457.41;;;1.63;84.17
66703;BME280;60933;46.398;-63.798;2023-05-09T05:41:09;100453.19;;;1.64;83.50
66703;BME280;60933;46.398;-63.798;2023-05-09T05:43:36;100454.00;;;1.61;83.86
66703;BME280;60933;46.398;-63.798;2023-05-09T05:46:02;100461.66;;;1.64;83.37
66703;BME280;60933;46.398;-63.798;2023-05-09T05:48:29;100459.97;;;1.62;83.14
66703;BME280;60933;46.398;-63.798;2023-05-09T05:50:55;100458.28;;;1.64;82.90
66703;BME280;60933;46.398;-63.798;2023-05-09T05:53:21;100465.03;;;1.63;81.51
66703;BME280;60933;46.398;-63.798;2023-05-09T05:55:47;100463.38;;;1.67;81.06
66703;BME280;60933;46.398;-63.798;2023-05-09T05:58:13;100464.25;;;1.67;80.88
66703;BME280;60933;46.398;-63.798;2023-05-09T06:00:40;100461.69;;;1.67;80.99
66703;BME280;60933;46.398;-63.798;2023-05-09T06:03:06;100457.44;;;1.65;80.57
66703;BME280;60933;46.398;-63.798;2023-05-09T06:05:32;100465.91;;;1.67;80.43
66703;BME280;60933;46.398;-63.798;2023-05-09T06:07:58;100458.28;;;1.64;80.40
66703;BME280;60933;46.398;-63.798;2023-05-09T06:10:24;100461.66;;;1.64;79.85
66703;BME280;60933;46.398;-63.798;2023-05-09T06:12:51;100461.66;;;1.66;79.53
66703;BME280;60933;46.398;-63.798;2023-05-09T06:15:17;100460.00;;;1.66;78.76
66703;BME280;60933;46.398;-63.798;2023-05-09T06:17:43;100471.03;;;1.70;78.36
66703;BME280;60933;46.398;-63.798;2023-05-09T06:20:09;100465.13;;;1.71;78.02
66703;BME280;60933;46.398;-63.798;2023-05-09T06:22:35;100469.38;;;1.72;77.13
66703;BME280;60933;46.398;-63.798;2023-05-09T06:25:01;100462.56;;;1.71;77.10
66703;BME280;60933;46.398;-63.798;2023-05-09T06:27:27;100472.78;;;1.76;76.67
66703;BME280;60933;46.398;-63.798;2023-05-09T06:29:54;100469.38;;;1.75;77.20
66703;BME280;60933;46.398;-63.798;2023-05-09T06:32:20;100475.31;;;1.74;76.75
66703;BME280;60933;46.398;-63.798;2023-05-09T06:34:46;100473.63;;;1.76;76.58
66703;BME280;60933;46.398;-63.798;2023-05-09T06:37:12;100474.47;;;1.77;76.90
66703;BME280;60933;46.398;-63.798;2023-05-09T06:39:38;100471.91;;;1.77;76.57
66703;BME280;60933;46.398;-63.798;2023-05-09T06:42:05;100479.56;;;1.77;77.25
66703;BME280;60933;46.398;-63.798;2023-05-09T06:44:31;100477.00;;;1.73;77.02
66703;BME280;60933;46.398;-63.798;2023-05-09T06:46:57;100479.56;;;1.75;76.82
66703;BME280;60933;46.398;-63.798;2023-05-09T06:49:23;100477.00;;;1.77;76.89
66703;BME280;60933;46.398;-63.798;2023-05-09T06:51:49;100479.59;;;1.80;76.76
66703;BME280;60933;46.398;-63.798;2023-05-09T06:54:15;100478.75;;;1.81;77.04
66703;BME280;60933;46.398;-63.798;2023-05-09T06:56:41;100470.25;;;1.79;76.65
66703;BME280;60933;46.398;-63.798;2023-05-09T06:59:08;100481.31;;;1.81;76.39
66703;BME280;60933;46.398;-63.798;2023-05-09T07:01:38;100471.09;;;1.74;76.26
66703;BME280;60933;46.398;-63.798;2023-05-09T07:04:05;100478.72;;;1.78;76.71
66703;BME280;60933;46.398;-63.798;2023-05-09T07:06:31;100477.88;;;1.79;76.20
66703;BME280;60933;46.398;-63.798;2023-05-09T07:08:57;100477.00;;;1.77;76.68
66703;BME280;60933;46.398;-63.798;2023-05-09T07:11:23;100485.50;;;1.76;76.78
66703;BME280;60933;46.398;-63.798;2023-05-09T07:13:50;100488.88;;;1.73;76.49
66703;BME280;60933;46.398;-63.798;2023-05-09T07:16:16;100483.78;;;1.73;76.91
66703;BME280;60933;46.398;-63.798;2023-05-09T07:18:47;100476.13;;;1.70;76.95
66703;BME280;60933;46.398;-63.798;2023-05-09T07:21:13;100492.25;;;1.70;76.28
66703;BME280;60933;46.398;-63.798;2023-05-09T07:23:39;100481.22;;;1.71;76.75
66703;BME280;60933;46.398;-63.798;2023-05-09T07:26:05;100487.19;;;1.72;76.42
66703;BME280;60933;46.398;-63.798;2023-05-09T07:28:31;100488.03;;;1.72;76.40
66703;BME280;60933;46.398;-63.798;2023-05-09T07:30:57;100499.91;;;1.77;75.29
66703;BME280;60933;46.398;-63.798;2023-05-09T07:33:23;100495.69;;;1.77;75.15
66703;BME280;60933;46.398;-63.798;2023-05-09T07:35:50;100488.06;;;1.77;74.79
66703;BME280;60933;46.398;-63.798;2023-05-09T07:38:17;100490.59;;;1.77;74.34
66703;BME280;60933;46.398;-63.798;2023-05-09T07:40:43;100478.69;;;1.73;74.28
66703;BME280;60933;46.398;-63.798;2023-05-09T07:43:09;100495.69;;;1.80;74.37
66703;BME280;60933;46.398;-63.798;2023-05-09T07:45:35;100496.59;;;1.84;73.80
66703;BME280;60933;46.398;-63.798;2023-05-09T07:48:01;100494.06;;;1.84;73.52
66703;BME280;60933;46.398;-63.798;2023-05-09T07:50:27;100489.81;;;1.84;73.51
66703;BME280;60933;46.398;-63.798;2023-05-09T07:52:54;100501.72;;;1.90;73.03
66703;BME280;60933;46.398;-63.798;2023-05-09T07:55:20;100492.38;;;1.89;73.13
66703;BME280;60933;46.398;-63.798;2023-05-09T07:57:46;100499.19;;;1.92;72.95
66703;BME280;60933;46.398;-63.798;2023-05-09T08:00:13;100506.00;;;1.93;72.88
66703;BME280;60933;46.398;-63.798;2023-05-09T08:02:40;100492.38;;;1.92;73.04
66703;BME280;60933;46.398;-63.798;2023-05-09T08:05:06;100506.00;;;1.96;72.73
66703;BME280;60933;46.398;-63.798;2023-05-09T08:07:33;100506.00;;;1.94;72.61
66703;BME280;60933;46.398;-63.798;2023-05-09T08:09:59;100500.91;;;1.93;72.54
66703;BME280;60933;46.398;-63.798;2023-05-09T08:12:25;100507.69;;;1.97;72.78
66703;BME280;60933;46.398;-63.798;2023-05-09T08:14:51;100502.59;;;1.97;72.57
66703;BME280;60933;46.398;-63.798;2023-05-09T08:17:17;100508.56;;;1.97;72.37
66703;BME280;60933;46.398;-63.798;2023-05-09T08:19:43;100507.72;;;1.98;72.32
66703;BME280;60933;46.398;-63.798;2023-05-09T08:22:15;100516.22;;;1.99;72.23
66703;BME280;60933;46.398;-63.798;2023-05-09T08:24:42;100506.88;;;1.99;71.94
66703;BME280;60933;46.398;-63.798;2023-05-09T08:27:10;100522.13;;;1.99;72.20
66703;BME280;60933;46.398;-63.798;2023-05-09T08:29:41;100522.16;;;2.01;71.65
66703;BME280;60933;46.398;-63.798;2023-05-09T08:32:10;100514.53;;;2.02;71.80
66703;BME280;60933;46.398;-63.798;2023-05-09T08:34:36;100523.03;;;2.03;71.61
66703;BME280;60933;46.398;-63.798;2023-05-09T08:37:03;100520.50;;;2.04;72.07
66703;BME280;60933;46.398;-63.798;2023-05-09T08:39:30;100522.22;;;2.05;72.09
66703;BME280;60933;46.398;-63.798;2023-05-09T08:41:58;100533.22;;;2.08;71.67
66703;BME280;60933;46.398;-63.798;2023-05-09T08:44:25;100542.56;;;2.09;72.10
66703;BME280;60933;46.398;-63.798;2023-05-09T08:46:57;100543.44;;;2.09;71.94
66703;BME280;60933;46.398;-63.798;2023-05-09T08:49:23;100547.66;;;2.09;72.33
66703;BME280;60933;46.398;-63.798;2023-05-09T08:51:51;100545.16;;;2.10;72.42
66703;BME280;60933;46.398;-63.798;2023-05-09T08:54:17;100552.78;;;2.13;72.18
66703;BME280;60933;46.398;-63.798;2023-05-09T08:56:44;100551.13;;;2.14;72.13
66703;BME280;60933;46.398;-63.798;2023-05-09T08:59:10;100551.13;;;2.14;72.42
66703;BME280;60933;46.398;-63.798;2023-05-09T09:01:37;100562.97;;;2.15;72.51
66703;BME280;60933;46.398;-63.798;2023-05-09T09:04:07;100558.75;;;2.18;72.20
66703;BME280;60933;46.398;-63.798;2023-05-09T09:06:34;100558.78;;;2.20;72.51
66703;BME280;60933;46.398;-63.798;2023-05-09T09:09:01;100562.22;;;2.22;72.63
66703;BME280;60933;46.398;-63.798;2023-05-09T09:11:32;100555.38;;;2.16;72.45
66703;BME280;60933;46.398;-63.798;2023-05-09T09:14:24;100563.03;;;2.19;72.74
66703;BME280;60933;46.398;-63.798;2023-05-09T09:16:54;100579.19;;;2.23;72.85
66703;BME280;60933;46.398;-63.798;2023-05-09T09:19:26;100568.13;;;2.18;73.32
66703;BME280;60933;46.398;-63.798;2023-05-09T09:21:58;100581.72;;;2.23;73.41
66703;BME280;60933;46.398;-63.798;2023-05-09T09:24:24;100591.06;;;2.21;73.52
66703;BME280;60933;46.398;-63.798;2023-05-09T09:26:50;100596.97;;;2.18;73.47
66703;BME280;60933;46.398;-63.798;2023-05-09T09:29:17;100595.28;;;2.17;73.70
66703;BME280;60933;46.398;-63.798;2023-05-09T09:31:46;100608.81;;;2.15;73.63
66703;BME280;60933;46.398;-63.798;2023-05-09T09:34:21;100602.91;;;2.14;73.90
66703;BME280;60933;46.398;-63.798;2023-05-09T09:36:48;100607.97;;;2.14;73.99
66703;BME280;60933;46.398;-63.798;2023-05-09T09:39:15;100609.66;;;2.12;74.11
66703;BME280;60933;46.398;-63.798;2023-05-09T09:41:41;100613.09;;;2.14;74.04
66703;BME280;60933;46.398;-63.798;2023-05-09T09:44:11;100621.56;;;2.15;74.44
66703;BME280;60933;46.398;-63.798;2023-05-09T09:46:47;100619.00;;;2.12;74.07
66703;BME280;60933;46.398;-63.798;2023-05-09T09:49:17;100624.09;;;2.15;74.20
66703;BME280;60933;46.398;-63.798;2023-05-09T09:51:44;100640.25;;;2.15;74.30
66703;BME280;60933;46.398;-63.798;2023-05-09T09:54:15;100635.16;;;2.15;74.26
66703;BME280;60933;46.398;-63.798;2023-05-09T09:56:44;100632.56;;;2.12;74.28
66703;BME280;60933;46.398;-63.798;2023-05-09T09:59:12;100605.25;;;1.91;74.73
66703;BME280;60933;46.398;-63.798;2023-05-09T10:04:21;100647.06;;;2.18;74.51
66703;BME280;60933;46.398;-63.798;2023-05-09T10:06:52;100655.59;;;2.21;74.54
66703;BME280;60933;46.398;-63.798;2023-05-09T10:09:20;100649.66;;;2.24;74.48
66703;BME280;60933;46.398;-63.798;2023-05-09T10:11:48;100657.34;;;2.27;74.03
66703;BME280;60933;46.398;-63.798;2023-05-09T10:14:18;100643.75;;;2.28;74.33
66703;BME280;60933;46.398;-63.798;2023-05-09T10:16:46;100654.81;;;2.33;73.97
66703;BME280;60933;46.398;-63.798;2023-05-09T10:19:16;100657.41;;;2.38;74.15
66703;BME280;60933;46.398;-63.798;2023-05-09T10:21:42;100663.38;;;2.40;73.71
66703;BME280;60933;46.398;-63.798;2023-05-09T10:24:10;100654.06;;;2.45;73.93
66703;BME280;60933;46.398;-63.798;2023-05-09T10:26:39;100669.41;;;2.50;73.51
66703;BME280;60933;46.398;-63.798;2023-05-09T10:29:11;100669.41;;;2.53;73.50
66703;BME280;60933;46.398;-63.798;2023-05-09T10:31:41;100671.97;;;2.56;73.35
66703;BME280;60933;46.398;-63.798;2023-05-09T10:34:09;100671.19;;;2.65;73.03
66703;BME280;60933;46.398;-63.798;2023-05-09T10:36:36;100678.00;;;2.72;72.78
66703;BME280;60933;46.398;-63.798;2023-05-09T10:39:03;100672.94;;;2.74;72.42
66703;BME280;60933;46.398;-63.798;2023-05-09T10:41:29;100678.13;;;2.88;72.81
66703;BME280;60933;46.398;-63.798;2023-05-09T10:43:57;100681.56;;;2.96;71.96
66703;BME280;60933;46.398;-63.798;2023-05-09T10:46:25;100671.38;;;3.00;71.72
66703;BME280;60933;46.398;-63.798;2023-05-09T10:48:52;100657.78;;;3.03;71.64
66703;BME280;60933;46.398;-63.798;2023-05-09T10:51:18;100681.66;;;3.16;70.87
66703;BME280;60933;46.398;-63.798;2023-05-09T10:53:49;100674.06;;;3.25;70.59
66703;BME280;60933;46.398;-63.798;2023-05-09T10:56:23;100686.00;;;3.39;70.69
66703;BME280;60933;46.398;-63.798;2023-05-09T10:58:51;100687.75;;;3.49;70.47
66703;BME280;60933;46.398;-63.798;2023-05-09T11:01:37;100692.88;;;3.55;69.55
66703;BME280;60933;46.398;-63.798;2023-05-09T11:04:12;100692.94;;;3.71;69.21
66703;BME280;60933;46.398;-63.798;2023-05-09T11:06:47;100709.09;;;3.76;68.69
66703;BME280;60933;46.398;-63.798;2023-05-09T11:11:54;100701.44;;;3.76;67.94
66703;BME280;60933;46.398;-63.798;2023-05-09T11:14:29;100704.88;;;3.84;67.93
66703;BME280;60933;46.398;-63.798;2023-05-09T11:16:57;100704.03;;;3.90;67.39
66703;BME280;60933;46.398;-63.798;2023-05-09T11:19:37;100733.00;;;3.96;66.75
66703;BME280;60933;46.398;-63.798;2023-05-09T11:22:15;100723.66;;;4.08;66.91
66703;BME280;60933;46.398;-63.798;2023-05-09T11:24:49;100723.66;;;4.19;65.89
66703;BME280;60933;46.398;-63.798;2023-05-09T11:29:48;100725.41;;;4.43;66.16
66703;BME280;60933;46.398;-63.798;2023-05-09T11:32:15;100716.88;;;4.59;65.56
66703;BME280;60933;46.398;-63.798;2023-05-09T11:34:43;100739.03;;;4.68;63.90
66703;BME280;60933;46.398;-63.798;2023-05-09T11:37:11;100735.63;;;4.60;63.06
66703;BME280;60933;46.398;-63.798;2023-05-09T11:39:58;100733.06;;;4.51;63.72
66703;BME280;60933;46.398;-63.798;2023-05-09T11:42:27;100743.28;;;4.51;63.85
66703;BME280;60933;46.398;-63.798;2023-05-09T11:44:54;100719.44;;;4.41;63.15
66703;BME280;60933;46.398;-63.798;2023-05-09T11:47:21;100751.81;;;4.54;62.68
66703;BME280;60933;46.398;-63.798;2023-05-09T11:49:48;100750.09;;;4.58;63.74
66703;BME280;60933;46.398;-63.798;2023-05-09T11:52:20;100746.69;;;4.59;63.56
66703;BME280;60933;46.398;-63.798;2023-05-09T11:54:47;100759.47;;;4.71;63.45
66703;BME280;60933;46.398;-63.798;2023-05-09T11:57:14;100748.41;;;4.75;63.47
66703;BME280;60933;46.398;-63.798;2023-05-09T11:59:44;100756.06;;;4.80;62.75
66703;BME280;60933;46.398;-63.798;2023-05-09T12:02:10;100750.94;;;4.86;62.25
66703;BME280;60933;46.398;-63.798;2023-05-09T12:04:37;100764.59;;;4.82;62.23
66703;BME280;60933;46.398;-63.798;2023-05-09T12:07:03;100762.91;;;4.72;61.04
66703;BME280;60933;46.398;-63.798;2023-05-09T12:09:33;100771.41;;;4.75;61.47
66703;BME280;60933;46.398;-63.798;2023-05-09T12:12:11;100778.25;;;4.81;61.02
66703;BME280;60933;46.398;-63.798;2023-05-09T12:14:38;100767.16;;;4.88;60.67
66703;BME280;60933;46.398;-63.798;2023-05-09T12:17:08;100780.78;;;4.95;60.75
66703;BME280;60933;46.398;-63.798;2023-05-09T12:19:34;100771.44;;;4.89;60.07
66703;BME280;60933;46.398;-63.798;2023-05-09T12:22:02;100774.81;;;4.91;60.77
66703;BME280;60933;46.398;-63.798;2023-05-09T12:24:30;100783.34;;;4.90;59.47
66703;BME280;60933;46.398;-63.798;2023-05-09T12:26:57;100780.78;;;4.89;59.50
66703;BME280;60933;46.398;-63.798;2023-05-09T12:29:24;100792.72;;;4.96;59.58
66703;BME280;60933;46.398;-63.798;2023-05-09T12:31:54;100787.59;;;5.10;59.26
66703;BME280;60933;46.398;-63.798;2023-05-09T12:34:20;100779.88;;;5.26;59.08
66703;BME280;60933;46.398;-63.798;2023-05-09T12:36:46;100786.59;;;5.61;59.57
66703;BME280;60933;46.398;-63.798;2023-05-09T12:39:16;100803.69;;;5.59;59.70
66703;BME280;60933;46.398;-63.798;2023-05-09T12:41:44;100802.00;;;5.50;59.29
66703;BME280;60933;46.398;-63.798;2023-05-09T12:44:24;100802.84;;;5.57;59.69
66703;BME280;60933;46.398;-63.798;2023-05-09T12:47:00;100809.66;;;5.56;59.68
66703;BME280;60933;46.398;-63.798;2023-05-09T12:49:28;100812.25;;;5.48;59.77
66703;BME280;60933;46.398;-63.798;2023-05-09T12:51:56;100845.56;;;5.44;59.44
66703;BME280;60933;46.398;-63.798;2023-05-09T12:54:24;100813.13;;;5.38;59.16
66703;BME280;60933;46.398;-63.798;2023-05-09T12:56:51;100813.13;;;5.50;58.67
66703;BME280;60933;46.398;-63.798;2023-05-09T12:59:22;100811.34;;;5.62;57.94
66703;BME280;60933;46.398;-63.798;2023-05-09T13:02:06;100824.91;;;6.01;59.02